createdAt,value
2023-05-19T00:01:30.186Z,6.53
2023-05-19T00:03:59.015Z,6.35
2023-05-19T00:06:27.795Z,6.20
2023-05-19T00:09:01.947Z,5.88
2023-05-19T00:11:29.729Z,5.97
2023-05-19T00:13:59.409Z,6.85
2023-05-19T00:16:28.612Z,6.18
2023-05-19T00:18:57.156Z,6.22
2023-05-19T00:21:24.585Z,6.93
2023-05-19T00:23:51.742Z,5.57
2023-05-19T00:26:18.926Z,6.22
2023-05-19T00:28:46.154Z,5.68
2023-05-19T00:31:13.340Z,5.53
2023-05-19T00:33:40.486Z,5.97
2023-05-19T00:36:07.893Z,6.60
2023-05-19T00:38:36.682Z,5.95
2023-05-19T00:41:04.918Z,5.38
2023-05-19T00:43:34.284Z,6.00
2023-05-19T00:46:01.576Z,5.70
2023-05-19T00:48:28.773Z,5.47
2023-05-19T00:51:01.932Z,6.18
2023-05-19T00:53:29.592Z,5.78
2023-05-19T00:55:56.859Z,5.82
2023-05-19T00:58:29.103Z,5.70
2023-05-19T01:01:04.185Z,6.20
2023-05-19T01:03:32.689Z,5.50
2023-05-19T01:06:04.867Z,5.80
2023-05-19T01:08:35.749Z,5.88
2023-05-19T01:11:03.084Z,5.43
2023-05-19T01:13:30.856Z,5.15
2023-05-19T01:15:58.422Z,5.68
2023-05-19T01:18:30.649Z,5.30
2023-05-19T01:21:18.173Z,5.20
2023-05-19T01:23:54.210Z,5.82
2023-05-19T01:26:47.683Z,5.95
2023-05-19T01:29:29.358Z,5.18
2023-05-19T01:31:58.214Z,5.28
2023-05-19T01:34:27.130Z,6.00
2023-05-19T01:36:55.636Z,5.35
2023-05-19T01:39:23.095Z,5.10
2023-05-19T01:41:51.429Z,5.32
2023-05-19T01:44:19.527Z,4.90
2023-05-19T01:46:46.755Z,5.43
2023-05-19T01:49:14.285Z,5.07
2023-05-19T01:51:41.611Z,5.32
2023-05-19T01:54:08.786Z,4.95
2023-05-19T01:56:42.761Z,4.72
2023-05-19T01:59:19.288Z,5.45
2023-05-19T02:01:51.361Z,5.10
2023-05-19T02:04:30.654Z,4.90
2023-05-19T02:07:01.300Z,4.97
2023-05-19T02:09:31.541Z,5.68
2023-05-19T02:12:04.660Z,5.00
2023-05-19T02:14:38.008Z,4.50
2023-05-19T02:17:06.009Z,5.00
2023-05-19T02:19:34.698Z,5.28
2023-05-19T02:22:02.105Z,5.10
2023-05-19T02:24:29.258Z,5.25
2023-05-19T02:26:56.504Z,4.70
2023-05-19T02:29:23.666Z,4.38
2023-05-19T02:31:51.141Z,5.20
2023-05-19T02:34:18.468Z,4.40
2023-05-19T02:36:45.665Z,4.78
2023-05-19T02:39:13.325Z,4.78
2023-05-19T02:41:40.464Z,5.22
2023-05-19T02:44:07.897Z,4.72
2023-05-19T02:46:35.086Z,4.30
2023-05-19T02:49:02.242Z,4.93
2023-05-19T02:51:29.389Z,4.63
2023-05-19T02:53:56.610Z,5.03
2023-05-19T02:56:23.755Z,4.43
2023-05-19T02:58:50.905Z,4.72
2023-05-19T03:01:18.336Z,4.43
2023-05-19T03:03:45.652Z,4.53
2023-05-19T03:06:13.260Z,4.90
2023-05-19T03:08:42.343Z,4.30
2023-05-19T03:11:09.673Z,5.35
2023-05-19T03:13:36.874Z,4.22
2023-05-19T03:16:04.258Z,4.72
2023-05-19T03:18:31.745Z,5.13
2023-05-19T03:20:58.875Z,4.68
2023-05-19T03:23:26.564Z,4.70
2023-05-19T03:25:56.726Z,4.43
2023-05-19T03:28:24.087Z,4.50
2023-05-19T03:30:51.314Z,4.38
2023-05-19T03:33:18.677Z,4.43
2023-05-19T03:35:45.921Z,4.20
2023-05-19T03:38:13.107Z,4.53
2023-05-19T03:40:41.383Z,4.25
2023-05-19T03:43:08.702Z,4.60
2023-05-19T03:45:35.915Z,4.00
2023-05-19T03:48:03.237Z,4.45
2023-05-19T03:50:31.750Z,4.32
2023-05-19T03:52:59.190Z,4.20
2023-05-19T03:55:26.374Z,4.70
2023-05-19T03:57:53.674Z,4.50
2023-05-19T04:00:20.869Z,4.05
2023-05-19T04:02:48.131Z,4.28
2023-05-19T04:05:15.608Z,4.25
2023-05-19T04:07:43.177Z,4.18
2023-05-19T04:10:10.668Z,4.20
2023-05-19T04:12:37.834Z,4.45
2023-05-19T04:15:06.217Z,4.53
2023-05-19T04:17:33.506Z,4.28
2023-05-19T04:20:01.127Z,4.20
2023-05-19T04:22:28.321Z,4.10
2023-05-19T04:24:56.200Z,4.57
2023-05-19T04:27:23.554Z,4.90
2023-05-19T04:29:51.006Z,4.13
2023-05-19T04:32:18.497Z,4.22
2023-05-19T04:34:46.163Z,4.28
2023-05-19T04:37:16.591Z,4.40
2023-05-19T04:39:45.317Z,4.05
2023-05-19T04:42:13.242Z,4.65
2023-05-19T04:44:40.519Z,4.35
2023-05-19T04:47:08.912Z,4.28
2023-05-19T04:49:39.575Z,3.92
2023-05-19T04:52:07.565Z,4.90
2023-05-19T04:54:35.660Z,4.35
2023-05-19T04:57:02.846Z,5.78
2023-05-19T04:59:29.974Z,4.97
2023-05-19T05:01:57.228Z,5.30
2023-05-19T05:04:24.462Z,5.43
2023-05-19T05:06:51.863Z,5.60
2023-05-19T05:09:20.162Z,6.15
2023-05-19T05:11:47.431Z,6.28
2023-05-19T05:14:14.811Z,8.25
2023-05-19T05:16:42.233Z,8.60
2023-05-19T05:19:09.734Z,9.52
2023-05-19T05:21:37.124Z,9.82
2023-05-19T05:24:04.386Z,9.68
2023-05-19T05:26:34.330Z,9.27
2023-05-19T05:29:01.830Z,10.13
2023-05-19T05:31:29.116Z,10.45
2023-05-19T05:33:56.326Z,9.93
2023-05-19T05:36:23.447Z,9.85
2023-05-19T05:38:50.649Z,9.55
2023-05-19T05:41:17.898Z,8.93
2023-05-19T05:43:45.048Z,9.10
2023-05-19T05:46:12.254Z,7.93
2023-05-19T05:48:39.610Z,7.93
2023-05-19T05:51:07.117Z,9.18
2023-05-19T05:53:37.062Z,8.48
2023-05-19T05:56:04.458Z,8.27
2023-05-19T05:58:33.106Z,7.25
2023-05-19T06:01:01.967Z,7.78
2023-05-19T06:03:29.173Z,9.07
2023-05-19T06:05:56.452Z,8.02
2023-05-19T06:08:23.661Z,7.55
2023-05-19T06:10:50.956Z,7.70
2023-05-19T06:13:22.281Z,7.00
2023-05-19T06:15:49.487Z,7.93
2023-05-19T06:18:16.661Z,7.35
2023-05-19T06:20:43.902Z,7.35
2023-05-19T06:23:11.050Z,6.90
2023-05-19T06:25:38.208Z,6.88
2023-05-19T06:28:05.960Z,6.70
2023-05-19T06:30:33.652Z,6.28
2023-05-19T06:33:01.038Z,6.82
2023-05-19T06:35:28.207Z,6.75
2023-05-19T06:37:58.323Z,6.45
2023-05-19T06:40:25.565Z,6.53
2023-05-19T06:42:52.844Z,6.15
2023-05-19T06:45:22.359Z,5.93
2023-05-19T06:47:49.865Z,6.35
2023-05-19T06:50:17.160Z,6.63
2023-05-19T06:52:44.456Z,6.22
2023-05-19T06:55:11.636Z,5.88
2023-05-19T06:57:38.830Z,5.72
2023-05-19T07:00:09.243Z,5.80
2023-05-19T07:02:36.553Z,5.38
2023-05-19T07:05:03.739Z,6.22
2023-05-19T07:07:30.918Z,6.00
2023-05-19T07:09:58.053Z,5.80
2023-05-19T07:12:26.605Z,5.53
2023-05-19T07:14:54.014Z,5.72
2023-05-19T07:17:21.644Z,5.32
2023-05-19T07:19:48.793Z,5.47
2023-05-19T07:22:16.217Z,5.03
2023-05-19T07:24:43.345Z,5.50
2023-05-19T07:27:10.789Z,5.40
2023-05-19T07:29:38.093Z,5.65
2023-05-19T07:32:05.830Z,5.18
2023-05-19T07:34:33.090Z,4.82
2023-05-19T07:37:00.249Z,4.80
2023-05-19T07:39:29.640Z,5.13
2023-05-19T07:41:57.039Z,5.45
2023-05-19T07:44:24.205Z,5.15
2023-05-19T07:46:51.364Z,5.18
2023-05-19T07:49:18.611Z,4.75
2023-05-19T07:51:46.246Z,5.00
2023-05-19T07:54:13.425Z,5.13
2023-05-19T07:56:40.642Z,5.00
2023-05-19T07:59:08.054Z,5.15
2023-05-19T08:01:35.305Z,4.82
2023-05-19T08:04:02.747Z,5.40
2023-05-19T08:06:30.134Z,5.32
2023-05-19T08:08:57.306Z,4.75
2023-05-19T08:11:24.447Z,4.43
2023-05-19T08:13:51.722Z,4.53
2023-05-19T08:16:19.144Z,5.03
2023-05-19T08:18:46.428Z,5.15
2023-05-19T08:21:13.701Z,4.40
2023-05-19T08:23:40.908Z,5.10
2023-05-19T08:26:08.081Z,4.78
2023-05-19T08:28:35.710Z,4.50
2023-05-19T08:31:02.882Z,4.20
2023-05-19T08:33:30.029Z,4.82
2023-05-19T08:36:00.614Z,4.47
2023-05-19T08:38:27.792Z,4.80
2023-05-19T08:40:55.142Z,4.20
2023-05-19T08:43:22.448Z,4.80
2023-05-19T08:45:50.014Z,4.07
2023-05-19T08:48:17.898Z,4.65
2023-05-19T08:50:47.524Z,4.57
2023-05-19T08:53:31.944Z,4.55
2023-05-19T08:56:04.025Z,4.40
2023-05-19T08:58:31.759Z,4.68
2023-05-19T09:01:00.511Z,4.45
2023-05-19T09:03:28.962Z,4.45
2023-05-19T09:05:56.606Z,4.85
2023-05-19T09:08:23.856Z,4.10
2023-05-19T09:10:51.167Z,4.55
2023-05-19T09:13:18.389Z,4.97
2023-05-19T09:15:46.236Z,4.50
2023-05-19T09:18:14.977Z,4.10
2023-05-19T09:20:43.170Z,4.70
2023-05-19T09:23:14.976Z,4.20
2023-05-19T09:25:51.906Z,4.90
2023-05-19T09:28:25.452Z,4.53
2023-05-19T09:31:01.942Z,4.75
2023-05-19T09:33:29.616Z,4.65
2023-05-19T09:35:57.121Z,4.65
2023-05-19T09:38:27.791Z,4.43
2023-05-19T09:40:57.356Z,4.70
2023-05-19T09:43:24.634Z,4.80
2023-05-19T09:46:01.878Z,4.72
2023-05-19T09:48:29.155Z,4.90
2023-05-19T09:50:57.845Z,4.57
2023-05-19T09:53:25.439Z,4.20
2023-05-19T09:55:57.567Z,4.28
2023-05-19T09:58:24.886Z,5.00
2023-05-19T10:00:52.561Z,3.97
2023-05-19T10:03:19.986Z,7.30
2023-05-19T10:05:47.349Z,6.53
2023-05-19T10:08:14.554Z,6.47
2023-05-19T10:10:42.037Z,9.68
2023-05-19T10:13:09.353Z,13.43
2023-05-19T10:15:46.668Z,15.88
2023-05-19T10:18:23.757Z,14.98
2023-05-19T10:20:51.121Z,15.55
2023-05-19T10:23:18.386Z,15.10
2023-05-19T10:25:45.618Z,14.95
2023-05-19T10:28:14.651Z,14.05
2023-05-19T10:30:42.624Z,12.88
2023-05-19T10:33:12.990Z,12.32
2023-05-19T10:35:49.082Z,11.63
2023-05-19T10:38:26.817Z,10.82
2023-05-19T10:40:58.638Z,11.40
2023-05-19T10:43:28.918Z,11.18
2023-05-19T10:45:56.135Z,9.63
2023-05-19T10:48:23.324Z,10.98
2023-05-19T10:50:54.651Z,11.50
2023-05-19T10:53:22.809Z,9.60
2023-05-19T10:55:55.900Z,9.45
2023-05-19T10:58:38.118Z,9.77
2023-05-19T11:01:11.495Z,9.38
2023-05-19T11:03:49.028Z,9.13
2023-05-19T11:06:27.330Z,8.65
2023-05-19T11:08:55.173Z,9.63
2023-05-19T11:11:23.376Z,9.20
2023-05-19T11:13:57.728Z,10.02
2023-05-19T11:16:29.286Z,9.38
2023-05-19T11:18:57.011Z,10.45
2023-05-19T11:21:24.203Z,11.45
2023-05-19T11:23:54.521Z,11.98
2023-05-19T11:26:42.085Z,12.15
2023-05-19T11:29:09.532Z,12.50
2023-05-19T11:31:36.865Z,18.98
2023-05-19T11:34:06.817Z,17.58
2023-05-19T11:36:35.032Z,17.00
2023-05-19T11:39:03.048Z,13.95
2023-05-19T11:41:30.995Z,14.60
2023-05-19T11:43:58.129Z,14.20
2023-05-19T11:46:25.852Z,12.40
2023-05-19T11:48:54.281Z,13.23
2023-05-19T11:51:22.123Z,12.57
2023-05-19T11:53:50.049Z,11.90
2023-05-19T11:56:17.196Z,12.55
2023-05-19T11:58:44.364Z,17.05
2023-05-19T12:01:11.490Z,43.60
2023-05-19T12:03:38.939Z,64.55
2023-05-19T12:06:08.391Z,49.15
2023-05-19T12:08:36.547Z,41.28
2023-05-19T12:11:03.794Z,40.92
2023-05-19T12:13:31.166Z,41.25
2023-05-19T12:16:01.254Z,41.60
2023-05-19T12:18:32.385Z,39.97
2023-05-19T12:20:59.629Z,38.60
2023-05-19T12:23:30.613Z,40.35
2023-05-19T12:26:00.943Z,40.88
2023-05-19T12:28:31.277Z,38.60
2023-05-19T12:30:58.659Z,35.13
2023-05-19T12:33:26.300Z,37.20
2023-05-19T12:35:55.297Z,39.13
2023-05-19T12:38:23.363Z,39.20
2023-05-19T12:40:50.923Z,35.30
2023-05-19T12:43:22.116Z,35.83
2023-05-19T12:45:49.738Z,36.22
2023-05-19T12:48:17.183Z,36.70
2023-05-19T12:50:45.167Z,35.60
2023-05-19T12:53:13.233Z,33.65
2023-05-19T12:55:42.749Z,31.80
2023-05-19T12:58:11.407Z,29.88
2023-05-19T13:00:47.320Z,31.73
2023-05-19T13:03:19.651Z,29.73
2023-05-19T13:05:47.756Z,29.60
2023-05-19T13:08:16.221Z,29.40
2023-05-19T13:10:44.185Z,29.05
2023-05-19T13:13:11.420Z,29.92
2023-05-19T13:15:40.089Z,27.00
2023-05-19T13:18:11.338Z,28.63
2023-05-19T13:20:39.207Z,26.65
2023-05-19T13:23:06.663Z,27.45
2023-05-19T13:25:34.553Z,27.38
2023-05-19T13:28:04.946Z,25.55
2023-05-19T13:30:33.161Z,24.00
2023-05-19T13:33:00.640Z,26.10
2023-05-19T13:35:27.879Z,25.95
2023-05-19T13:37:55.152Z,24.83
2023-05-19T13:40:23.927Z,26.23
2023-05-19T13:42:51.161Z,26.95
2023-05-19T13:45:18.441Z,23.95
2023-05-19T13:47:45.793Z,23.80
2023-05-19T13:50:13.027Z,26.00
2023-05-19T13:52:40.196Z,25.38
2023-05-19T13:55:07.754Z,25.77
2023-05-19T13:57:35.488Z,23.17
2023-05-19T14:00:04.526Z,25.15
2023-05-19T14:02:32.091Z,23.23
2023-05-19T14:04:59.530Z,24.70
2023-05-19T14:07:27.197Z,23.88
2023-05-19T14:09:54.790Z,23.27
2023-05-19T14:12:27.781Z,24.42
2023-05-19T14:15:02.169Z,23.10
2023-05-19T14:17:29.569Z,23.73
2023-05-19T14:19:56.725Z,24.02
2023-05-19T14:22:23.867Z,22.35
2023-05-19T14:24:51.008Z,22.13
2023-05-19T14:27:18.179Z,21.52
2023-05-19T14:29:45.440Z,23.48
2023-05-19T14:32:12.888Z,22.27
2023-05-19T14:34:40.265Z,22.90
2023-05-19T14:37:07.453Z,23.00
2023-05-19T14:39:34.589Z,22.92
2023-05-19T14:42:01.772Z,23.15
2023-05-19T14:44:37.433Z,21.50
2023-05-19T14:47:04.732Z,23.58
2023-05-19T14:49:32.101Z,21.80
2023-05-19T14:51:59.270Z,22.27
2023-05-19T14:54:26.435Z,21.63
2023-05-19T14:56:53.593Z,21.60
2023-05-19T14:59:21.654Z,21.90
2023-05-19T15:01:48.848Z,20.83
2023-05-19T15:04:16.153Z,20.35
2023-05-19T15:06:43.674Z,21.33
2023-05-19T15:09:14.496Z,20.48
2023-05-19T15:11:41.708Z,20.33
2023-05-19T15:14:09.028Z,19.98
2023-05-19T15:16:36.429Z,20.70
2023-05-19T15:19:03.783Z,20.77
2023-05-19T15:21:31.302Z,20.05
2023-05-19T15:23:58.560Z,19.27
2023-05-19T15:26:29.049Z,18.45
2023-05-19T15:28:56.889Z,19.38
2023-05-19T15:31:24.369Z,19.90
2023-05-19T15:33:51.554Z,18.67
2023-05-19T15:36:18.964Z,18.60
2023-05-19T15:38:46.102Z,16.95
2023-05-19T15:41:13.328Z,18.17
2023-05-19T15:43:41.448Z,18.35
2023-05-19T15:46:08.681Z,16.58
2023-05-19T15:48:35.964Z,18.00
2023-05-19T15:51:03.343Z,17.55
2023-05-19T15:53:30.546Z,18.02
2023-05-19T15:55:57.745Z,17.33
2023-05-19T15:58:24.947Z,19.13
2023-05-19T16:00:52.171Z,17.10
2023-05-19T16:03:19.477Z,18.13
2023-05-19T16:05:46.782Z,17.63
2023-05-19T16:08:13.916Z,17.48
2023-05-19T16:10:41.108Z,17.23
2023-05-19T16:13:08.265Z,17.02
2023-05-19T16:15:35.379Z,17.40
2023-05-19T16:18:02.697Z,17.42
2023-05-19T16:20:29.933Z,15.77
2023-05-19T16:22:57.338Z,16.27
2023-05-19T16:25:25.056Z,16.40
2023-05-19T16:27:52.570Z,14.95
2023-05-19T16:30:19.824Z,15.68
2023-05-19T16:32:47.057Z,16.35
2023-05-19T16:35:14.272Z,15.18
2023-05-19T16:37:41.478Z,15.10
2023-05-19T16:40:08.893Z,15.05
2023-05-19T16:42:36.066Z,15.00
2023-05-19T16:45:03.199Z,15.32
2023-05-19T16:47:30.477Z,14.95
2023-05-19T16:49:57.728Z,15.93
2023-05-19T16:52:24.911Z,16.10
2023-05-19T16:54:52.096Z,15.45
2023-05-19T16:57:19.269Z,15.52
2023-05-19T16:59:46.468Z,15.05
2023-05-19T17:02:13.708Z,14.82
2023-05-19T17:04:40.980Z,14.27
2023-05-19T17:07:08.173Z,15.13
2023-05-19T17:09:35.548Z,14.32
2023-05-19T17:12:02.685Z,14.70
2023-05-19T17:14:29.826Z,12.93
2023-05-19T17:16:57.017Z,14.20
2023-05-19T17:19:24.288Z,13.45
2023-05-19T17:21:51.536Z,13.45
2023-05-19T17:24:18.657Z,15.07
2023-05-19T17:26:45.857Z,13.57
2023-05-19T17:29:13.157Z,13.80
2023-05-19T17:31:40.422Z,14.23
2023-05-19T17:34:07.639Z,14.27
2023-05-19T17:36:34.756Z,14.32
2023-05-19T17:39:01.938Z,13.48
2023-05-19T17:41:29.180Z,13.73
2023-05-19T17:43:56.337Z,13.40
2023-05-19T17:46:23.551Z,13.70
2023-05-19T17:48:50.746Z,13.57
2023-05-19T17:51:18.007Z,13.77
2023-05-19T17:53:45.478Z,14.40
2023-05-19T17:56:13.340Z,12.98
2023-05-19T17:58:41.339Z,13.77
2023-05-19T18:01:08.731Z,13.25
2023-05-19T18:03:36.312Z,13.07
2023-05-19T18:06:03.683Z,13.57
2023-05-19T18:08:31.875Z,14.50
2023-05-19T18:10:59.189Z,12.95
2023-05-19T18:13:26.484Z,13.43
2023-05-19T18:15:53.729Z,12.15
2023-05-19T18:18:20.922Z,13.70
2023-05-19T18:20:48.228Z,13.52
2023-05-19T18:23:15.391Z,13.02
2023-05-19T18:25:49.411Z,12.57
2023-05-19T18:28:16.576Z,12.30
2023-05-19T18:30:44.134Z,13.23
2023-05-19T18:33:11.307Z,11.73
2023-05-19T18:35:38.648Z,12.63
2023-05-19T18:38:05.803Z,13.25
2023-05-19T18:40:33.321Z,13.05
2023-05-19T18:43:00.748Z,12.75
2023-05-19T18:45:27.910Z,11.77
2023-05-19T18:47:55.125Z,11.68
2023-05-19T18:50:22.537Z,12.13
2023-05-19T18:52:49.688Z,12.75
2023-05-19T18:55:16.832Z,12.50
2023-05-19T18:57:43.969Z,12.50
2023-05-19T19:00:11.541Z,11.45
2023-05-19T19:02:38.751Z,10.77
2023-05-19T19:05:09.491Z,11.52
2023-05-19T19:07:44.332Z,12.23
2023-05-19T19:10:11.897Z,12.27
2023-05-19T19:12:39.124Z,12.23
2023-05-19T19:15:06.607Z,11.13
2023-05-19T19:17:33.771Z,12.00
2023-05-19T19:20:01.090Z,10.75
2023-05-19T19:22:28.284Z,11.73
2023-05-19T19:24:55.490Z,12.52
2023-05-19T19:27:24.702Z,10.73
2023-05-19T19:29:51.916Z,11.52
2023-05-19T19:32:19.102Z,11.50
2023-05-19T19:34:46.305Z,13.63
2023-05-19T19:37:14.454Z,12.23
2023-05-19T19:39:41.681Z,13.57
2023-05-19T19:42:08.832Z,14.20
2023-05-19T19:44:35.966Z,13.65
2023-05-19T19:47:06.237Z,12.27
2023-05-19T19:49:33.654Z,11.25
2023-05-19T19:52:03.459Z,13.35
2023-05-19T19:54:30.688Z,12.25
2023-05-19T19:56:57.842Z,12.13
2023-05-19T19:59:26.544Z,12.73
2023-05-19T20:01:54.127Z,12.45
2023-05-19T20:04:21.497Z,11.00
2023-05-19T20:06:49.693Z,11.70
2023-05-19T20:09:17.050Z,12.38
2023-05-19T20:11:44.223Z,11.52
2023-05-19T20:14:11.467Z,11.90
2023-05-19T20:16:40.392Z,12.13
2023-05-19T20:19:09.398Z,11.15
2023-05-19T20:21:36.702Z,11.27
2023-05-19T20:24:04.054Z,11.52
2023-05-19T20:26:31.463Z,11.18
2023-05-19T20:28:59.039Z,11.02
2023-05-19T20:31:26.227Z,10.55
2023-05-19T20:33:53.404Z,11.95
2023-05-19T20:36:20.967Z,10.63
2023-05-19T20:38:48.102Z,11.63
2023-05-19T20:41:15.633Z,11.45
2023-05-19T20:43:42.929Z,10.70
2023-05-19T20:46:10.523Z,11.18
2023-05-19T20:48:37.671Z,11.07
2023-05-19T20:51:04.809Z,11.43
2023-05-19T20:53:32.025Z,11.02
2023-05-19T20:55:59.202Z,10.50
2023-05-19T20:58:30.052Z,10.52
2023-05-19T21:00:57.941Z,11.80
2023-05-19T21:03:26.977Z,10.30
2023-05-19T21:05:54.385Z,10.95
2023-05-19T21:08:21.590Z,11.43
2023-05-19T21:10:48.906Z,10.75
2023-05-19T21:13:16.253Z,11.18
2023-05-19T21:15:43.395Z,10.73
2023-05-19T21:18:12.165Z,10.23
2023-05-19T21:20:39.997Z,9.77
2023-05-19T21:23:07.264Z,10.98
2023-05-19T21:25:34.499Z,10.77
2023-05-19T21:28:01.708Z,9.60
2023-05-19T21:30:28.982Z,11.00
2023-05-19T21:32:56.242Z,10.68
2023-05-19T21:35:23.417Z,10.15
2023-05-19T21:37:50.891Z,10.25
2023-05-19T21:40:18.033Z,11.55
2023-05-19T21:42:45.278Z,9.70
2023-05-19T21:45:12.426Z,9.95
2023-05-19T21:47:39.647Z,10.43
2023-05-19T21:50:07.152Z,10.07
2023-05-19T21:52:36.341Z,11.18
2023-05-19T21:55:03.545Z,10.13
2023-05-19T21:57:30.701Z,10.27
2023-05-19T21:59:57.922Z,10.30
2023-05-19T22:02:25.247Z,10.13
2023-05-19T22:04:52.517Z,9.27
2023-05-19T22:07:26.717Z,9.80
2023-05-19T22:09:54.362Z,9.98
2023-05-19T22:12:21.555Z,9.40
2023-05-19T22:14:48.795Z,9.52
2023-05-19T22:17:15.954Z,9.70
2023-05-19T22:19:43.147Z,9.13
2023-05-19T22:22:14.203Z,9.18
2023-05-19T22:24:41.999Z,9.30
2023-05-19T22:27:09.176Z,9.63
2023-05-19T22:29:38.529Z,9.13
2023-05-19T22:32:07.729Z,9.77
2023-05-19T22:34:34.950Z,9.63
2023-05-19T22:37:02.420Z,9.50
2023-05-19T22:39:29.575Z,9.70
2023-05-19T22:41:56.708Z,9.55
2023-05-19T22:44:23.898Z,8.98
2023-05-19T22:46:51.049Z,9.73
2023-05-19T22:49:18.183Z,9.27
2023-05-19T22:51:45.330Z,9.57
2023-05-19T22:54:13.470Z,9.45
2023-05-19T22:56:44.240Z,9.75
2023-05-19T22:59:12.466Z,11.20
2023-05-19T23:01:39.711Z,10.85
2023-05-19T23:04:06.942Z,10.15
2023-05-19T23:06:34.126Z,10.55
2023-05-19T23:09:02.148Z,10.18
2023-05-19T23:11:29.287Z,9.50
2023-05-19T23:13:56.528Z,9.82
2023-05-19T23:16:23.736Z,8.90
2023-05-19T23:18:50.974Z,10.40
2023-05-19T23:21:18.178Z,10.02
2023-05-19T23:23:45.332Z,9.77
2023-05-19T23:26:13.638Z,9.70
2023-05-19T23:28:42.365Z,10.15
2023-05-19T23:31:09.707Z,9.50
2023-05-19T23:33:37.015Z,9.45
2023-05-19T23:36:08.069Z,10.48
2023-05-19T23:38:35.679Z,9.38
2023-05-19T23:41:02.971Z,9.68
2023-05-19T23:43:30.269Z,8.85
2023-05-19T23:45:57.461Z,9.63
2023-05-19T23:48:24.706Z,8.82
2023-05-19T23:50:51.834Z,8.90
2023-05-19T23:53:18.971Z,9.82
2023-05-19T23:55:46.422Z,8.70
2023-05-19T23:58:13.668Z,9.40
